Time;durP1;ratioP1;P1;durP2;ratioP2;P2;SDS_P1;SDS_P2;PMS_P1;PMS_P2;Temp;Humidity;BMP_temperature;BMP_pressure;BME280_temperature;BME280_humidity;BME280_pressure;Samples;Min_cycle;Max_cycle;Signal;HPM_P1;HPM_P2
2023/01/03 00:01:14;;;;;;;0.70;0.70;;;3.20;99.90;;;;;;4980954;28;20085;-87
2023/01/03 00:03:40;;;;;;;1.45;1.35;;;3.00;99.90;;;;;;4987362;28;20038;-82
2023/01/03 00:06:21;;;;;;;0.60;0.60;;;3.10;99.90;;;;;;4986723;28;20043;-86
2023/01/03 00:08:48;;;;;;;0.90;0.90;;;3.10;99.90;;;;;;4968673;28;20078;-85
2023/01/03 00:11:17;;;;;;;0.60;0.60;;;3.00;99.90;;;;;;4985689;28;20046;-85
2023/01/03 00:13:43;;;;;;;0.70;0.70;;;3.00;99.90;;;;;;5002020;28;20054;-84
2023/01/03 00:16:15;;;;;;;;;;;3.00;99.90;;;;;;4976087;28;20038;-84
2023/01/03 00:18:41;;;;;;;0.70;0.70;;;3.00;99.90;;;;;;5005543;28;19929;-85
2023/01/03 00:21:07;;;;;;;0.60;0.60;;;3.00;99.90;;;;;;4985587;28;20034;-86
2023/01/03 00:23:33;;;;;;;0.80;0.80;;;3.20;99.90;;;;;;4987804;28;20128;-82
2023/01/03 00:25:58;;;;;;;0.90;0.90;;;3.40;99.90;;;;;;4987119;28;20550;-84
2023/01/03 00:28:24;;;;;;;0.80;0.80;;;3.50;99.90;;;;;;4991173;28;20097;-85
2023/01/03 00:30:50;;;;;;;0.70;0.70;;;3.60;99.90;;;;;;5004489;28;20050;-83
2023/01/03 00:33:15;;;;;;;0.60;0.60;;;3.60;99.90;;;;;;5005451;28;20092;-88
2023/01/03 00:35:41;;;;;;;0.60;0.60;;;3.80;99.90;;;;;;4955355;28;20081;-85
2023/01/03 00:38:07;;;;;;;0.77;0.77;;;3.90;99.90;;;;;;4987563;28;20056;-83
2023/01/03 00:40:32;;;;;;;1.58;1.48;;;4.20;99.90;;;;;;4957118;28;20056;-84
2023/01/03 00:45:43;;;;;;;0.60;0.60;;;3.80;99.90;;;;;;4990192;28;19960;-84
2023/01/03 00:48:08;;;;;;;0.70;0.70;;;4.20;99.90;;;;;;4989008;28;20085;-84
2023/01/03 00:50:36;;;;;;;0.68;0.68;;;4.60;99.90;;;;;;4990399;28;20042;-84
2023/01/03 00:53:02;;;;;;;0.50;0.50;;;4.10;99.90;;;;;;4992625;28;20125;-84
2023/01/03 00:55:27;;;;;;;0.60;0.60;;;4.20;99.90;;;;;;4970508;28;20133;-82
2023/01/03 00:57:53;;;;;;;0.60;0.60;;;4.20;99.90;;;;;;4988065;28;20408;-86
2023/01/03 01:00:19;;;;;;;0.77;0.77;;;4.30;99.90;;;;;;4971020;28;20042;-82
2023/01/03 01:02:45;;;;;;;0.70;0.70;;;4.30;99.90;;;;;;4988754;28;20391;-85
2023/01/03 01:05:10;;;;;;;0.70;0.70;;;4.20;99.90;;;;;;4971805;28;20054;-86
2023/01/03 01:07:36;;;;;;;0.65;0.65;;;4.20;99.90;;;;;;4973646;28;20054;-85
2023/01/03 01:10:02;;;;;;;0.70;0.70;;;4.20;99.90;;;;;;4975090;28;20046;-81
2023/01/03 01:12:28;;;;;;;0.60;0.60;;;4.20;99.90;;;;;;4972072;28;20384;-82
2023/01/03 01:14:53;;;;;;;0.60;0.60;;;4.30;99.90;;;;;;4985833;28;20042;-85
2023/01/03 01:17:19;;;;;;;0.60;0.60;;;4.30;99.90;;;;;;4988805;28;20041;-84
2023/01/03 01:19:45;;;;;;;0.93;0.93;;;4.30;99.90;;;;;;4988295;28;20121;-85
2023/01/03 01:22:11;;;;;;;0.65;0.65;;;4.40;99.90;;;;;;4988159;28;20062;-84
2023/01/03 01:24:36;;;;;;;0.55;0.55;;;4.40;99.90;;;;;;4955060;28;20053;-86
2023/01/03 01:27:02;;;;;;;0.50;0.50;;;4.40;99.90;;;;;;4991250;28;20042;-89
2023/01/03 01:29:30;;;;;;;0.80;0.80;;;4.50;99.90;;;;;;4991641;28;20041;-89
2023/01/03 01:31:56;;;;;;;0.63;0.63;;;4.40;99.90;;;;;;4960244;28;20046;-85
2023/01/03 01:34:21;;;;;;;1.00;1.00;;;4.60;99.90;;;;;;4993714;28;20046;-88
2023/01/03 01:36:48;;;;;;;0.70;0.70;;;4.60;99.90;;;;;;4993186;28;20447;-85
2023/01/03 01:39:17;;;;;;;0.43;0.43;;;4.40;99.90;;;;;;4988996;28;20050;-85
2023/01/03 01:44:39;;;;;;;0.55;0.55;;;4.70;99.90;;;;;;4975347;28;20046;-85
2023/01/03 01:47:19;;;;;;;0.75;0.75;;;4.30;99.90;;;;;;5007522;28;20038;-84
2023/01/03 01:49:46;;;;;;;0.60;0.60;;;4.30;99.90;;;;;;4990743;28;20034;-85
2023/01/03 01:52:15;;;;;;;2.28;1.35;;;4.20;99.90;;;;;;4976907;28;20047;-84
2023/01/03 01:54:41;;;;;;;0.80;0.80;;;4.20;99.90;;;;;;4990062;28;20035;-84
2023/01/03 01:57:11;;;;;;;0.50;0.50;;;4.50;99.90;;;;;;4991078;28;20044;-85
2023/01/03 01:59:37;;;;;;;0.88;0.88;;;4.30;99.90;;;;;;4972263;28;20162;-82
2023/01/03 02:02:02;;;;;;;0.60;0.60;;;4.20;99.90;;;;;;4976786;28;20488;-84
2023/01/03 02:04:32;;;;;;;0.50;0.50;;;4.90;99.90;;;;;;4986500;28;20042;-82
2023/01/03 02:06:58;;;;;;;0.65;0.65;;;4.20;99.90;;;;;;5003037;28;20113;-85
2023/01/03 02:09:24;;;;;;;0.55;0.55;;;4.20;99.90;;;;;;4988019;28;20042;-85
2023/01/03 02:13:04;;;;;;;0.57;0.57;;;4.10;99.90;;;;;;4985639;28;20403;-83
2023/01/03 02:14:45;;;;;;;0.52;0.52;;;4.20;99.90;;;;;;4986942;28;20070;-85
2023/01/03 02:17:30;;;;;;;0.60;0.60;;;4.20;99.90;;;;;;4994489;28;20042;-82
2023/01/03 02:20:30;;;;;;;0.60;0.60;;;4.20;99.90;;;;;;4995693;28;20054;-86
2023/01/03 02:23:23;;;;;;;0.60;0.60;;;4.20;99.90;;;;;;4977287;28;20050;-85
2023/01/03 02:26:07;;;;;;;0.60;0.60;;;4.20;99.90;;;;;;5015296;28;20054;-86
2023/01/03 02:28:53;;;;;;;0.50;0.50;;;4.20;99.90;;;;;;4991936;28;20165;-85
2023/01/03 02:31:45;;;;;;;0.55;0.55;;;4.20;99.90;;;;;;4991887;28;20046;-86
2023/01/03 02:34:39;;;;;;;7.18;2.60;;;3.70;99.90;;;;;;4994192;28;20097;-86
2023/01/03 02:37:35;;;;;;;0.70;0.70;;;4.50;99.90;;;;;;4995703;28;20035;-83
2023/01/03 02:40:05;;;;;;;0.60;0.60;;;4.10;99.90;;;;;;4994573;28;20049;-83
2023/01/03 02:43:00;;;;;;;0.63;0.63;;;4.10;99.90;;;;;;4970514;28;20035;-83
2023/01/03 02:45:45;;;;;;;0.65;0.65;;;4.00;99.90;;;;;;4991069;28;20293;-83
2023/01/03 02:48:37;;;;;;;0.55;0.55;;;4.00;99.90;;;;;;4988119;28;20046;-87
2023/01/03 02:51:11;;;;;;;0.60;0.60;;;3.90;99.90;;;;;;5003485;28;20369;-86
2023/01/03 02:53:46;;;;;;;0.63;0.63;;;4.00;99.90;;;;;;4984995;28;20085;-87
2023/01/03 02:56:17;;;;;;;0.73;0.73;;;3.80;99.90;;;;;;4987653;28;20050;-86
2023/01/03 02:58:47;;;;;;;0.63;0.63;;;3.70;99.90;;;;;;4988971;28;20038;-86
2023/01/03 03:01:15;;;;;;;0.60;0.60;;;3.60;99.90;;;;;;4990587;28;20096;-85
2023/01/03 03:03:41;;;;;;;0.60;0.60;;;3.50;99.90;;;;;;4990171;28;20061;-88
2023/01/03 03:06:13;;;;;;;0.80;0.80;;;3.30;99.90;;;;;;4974012;28;20046;-83
2023/01/03 03:08:42;;;;;;;0.60;0.60;;;3.20;99.90;;;;;;4986047;28;20052;-83
2023/01/03 03:13:59;;;;;;;0.60;0.60;;;3.00;99.90;;;;;;4986268;28;20038;-86
2023/01/03 03:16:46;;;;;;;0.60;0.60;;;2.90;99.90;;;;;;4986436;28;20508;-84
2023/01/03 03:25:23;;;;;;;0.70;0.70;;;2.60;99.90;;;;;;4987327;28;20074;-87
2023/01/03 03:30:43;;;;;;;0.60;0.60;;;2.40;99.90;;;;;;4985236;28;20046;-85
2023/01/03 03:33:12;;;;;;;0.63;0.63;;;2.40;99.90;;;;;;5004424;28;20113;-86
2023/01/03 03:35:54;;;;;;;0.70;0.70;;;2.40;99.90;;;;;;4989227;28;20077;-84
2023/01/03 03:38:30;;;;;;;0.60;0.60;;;2.30;99.90;;;;;;4988357;28;20069;-83
2023/01/03 03:47:36;;;;;;;0.70;0.70;;;2.20;99.90;;;;;;4984487;28;20050;-88
2023/01/03 03:50:19;;;;;;;0.65;0.65;;;2.70;99.90;;;;;;4988002;28;20038;-85
2023/01/03 03:52:49;;;;;;;5.82;2.45;;;2.10;99.90;;;;;;5002507;28;20113;-81
2023/01/03 03:55:20;;;;;;;0.70;0.70;;;2.10;99.90;;;;;;4987163;28;20070;-81
2023/01/03 03:58:13;;;;;;;0.75;0.75;;;2.10;99.90;;;;;;4986473;28;20488;-86
2023/01/03 04:00:41;;;;;;;0.70;0.70;;;2.00;99.90;;;;;;4985133;28;20047;-82
2023/01/03 04:03:09;;;;;;;0.70;0.70;;;2.00;99.90;;;;;;4987364;28;20081;-87
2023/01/03 04:05:42;;;;;;;0.70;0.70;;;1.90;99.90;;;;;;4985783;28;20065;-83
2023/01/03 04:08:09;;;;;;;0.70;0.70;;;1.90;99.90;;;;;;4984616;28;20073;-85
2023/01/03 04:10:35;;;;;;;0.60;0.60;;;1.80;99.90;;;;;;4988158;28;20050;-83
2023/01/03 04:13:01;;;;;;;0.60;0.60;;;1.80;99.90;;;;;;4986527;28;20395;-84
2023/01/03 04:15:27;;;;;;;0.70;0.70;;;1.80;99.90;;;;;;4987714;28;20049;-83
2023/01/03 04:17:52;;;;;;;0.70;0.70;;;1.80;99.90;;;;;;4986330;28;20038;-84
2023/01/03 04:20:18;;;;;;;0.60;0.60;;;1.80;99.90;;;;;;4970566;28;20050;-84
2023/01/03 04:22:44;;;;;;;0.70;0.70;;;1.80;99.90;;;;;;4984077;28;20054;-83
2023/01/03 04:25:13;;;;;;;0.60;0.60;;;1.80;99.90;;;;;;4985766;28;20046;-85
2023/01/03 04:27:38;;;;;;;0.70;0.70;;;1.70;99.90;;;;;;4972452;28;20049;-88
2023/01/03 04:30:06;;;;;;;0.70;0.70;;;1.70;99.90;;;;;;4982816;28;20070;-83
2023/01/03 04:32:32;;;;;;;0.70;0.70;;;1.80;99.90;;;;;;4965487;28;20046;-83
2023/01/03 04:34:58;;;;;;;3.97;3.63;;;1.80;99.90;;;;;;4999010;28;20054;-81
2023/01/03 04:37:26;;;;;;;0.70;0.70;;;1.80;99.90;;;;;;4998127;28;20113;-85
2023/01/03 04:39:58;;;;;;;0.80;0.80;;;1.90;99.90;;;;;;4972652;28;20061;-88
2023/01/03 04:45:09;;;;;;;0.80;0.80;;;2.00;99.90;;;;;;4988974;28;20116;-85
2023/01/03 04:47:35;;;;;;;0.82;0.82;;;2.00;99.90;;;;;;4970619;28;20428;-88
2023/01/03 04:50:00;;;;;;;0.80;0.80;;;2.90;99.90;;;;;;4987004;28;20076;-84
2023/01/03 04:52:27;;;;;;;1.10;1.10;;;2.20;99.90;;;;;;4967786;28;20050;-81
2023/01/03 04:54:53;;;;;;;0.60;0.60;;;2.30;99.90;;;;;;4983619;28;20050;-87
2023/01/03 04:57:18;;;;;;;0.63;0.63;;;3.00;99.90;;;;;;4986931;28;20446;-85
2023/01/03 04:59:44;;;;;;;1.50;1.42;;;2.40;99.90;;;;;;4974715;28;20046;-85
2023/01/03 05:02:10;;;;;;;0.55;0.55;;;3.00;99.90;;;;;;4989185;28;20503;-84
2023/01/03 05:04:35;;;;;;;0.70;0.70;;;2.50;99.90;;;;;;4989873;28;20030;-84
2023/01/03 05:07:01;;;;;;;0.80;0.80;;;2.40;99.90;;;;;;4972384;28;20042;-84
2023/01/03 05:09:27;;;;;;;0.70;0.70;;;2.70;99.90;;;;;;4973492;28;20058;-84
2023/01/03 05:11:53;;;;;;;0.70;0.70;;;3.40;99.90;;;;;;4989683;28;20427;-87
2023/01/03 05:14:18;;;;;;;1.45;1.35;;;2.70;99.90;;;;;;4977689;28;20044;-85
2023/01/03 05:16:44;;;;;;;0.80;0.80;;;2.80;99.90;;;;;;4981419;28;20046;-85
2023/01/03 05:19:10;;;;;;;0.70;0.70;;;2.80;99.90;;;;;;4993622;28;20034;-86
2023/01/03 05:27:05;;;;;;;0.70;0.70;;;3.60;99.90;;;;;;4997291;28;20101;-86
2023/01/03 05:29:32;;;;;;;0.70;0.70;;;3.40;99.90;;;;;;4956345;28;20076;-86
2023/01/03 05:31:58;;;;;;;0.70;0.70;;;3.90;99.90;;;;;;4989259;28;20038;-83
2023/01/03 05:34:24;;;;;;;1.00;1.00;;;2.80;99.90;;;;;;4975927;28;20141;-85
2023/01/03 05:36:49;;;;;;;0.77;0.77;;;2.60;99.90;;;;;;4990701;28;20110;-86
2023/01/03 05:39:15;;;;;;;1.48;1.38;;;2.80;99.90;;;;;;4975857;28;20073;-84
2023/01/03 05:44:30;;;;;;;0.70;0.70;;;2.80;99.90;;;;;;4988922;28;20519;-84
2023/01/03 05:47:03;;;;;;;1.37;1.27;;;2.90;99.90;;;;;;4987561;28;20089;-85
2023/01/03 05:49:29;;;;;;;0.70;0.70;;;2.90;99.90;;;;;;4974245;28;20046;-88
2023/01/03 05:51:55;;;;;;;0.80;0.80;;;3.10;99.90;;;;;;4971511;28;20050;-86
2023/01/03 05:54:21;;;;;;;0.90;0.90;;;3.00;99.90;;;;;;4973933;28;20042;-88
2023/01/03 05:56:47;;;;;;;0.85;0.85;;;3.00;99.90;;;;;;4958056;28;20038;-84
2023/01/03 05:59:13;;;;;;;0.85;0.85;;;3.40;99.90;;;;;;4976174;28;20078;-83
2023/01/03 06:01:39;;;;;;;;;;;3.10;99.90;;;;;;4990957;28;20394;-86
2023/01/03 06:04:05;;;;;;;2.63;2.53;;;3.10;99.90;;;;;;4987073;28;19924;-86
2023/01/03 06:06:31;;;;;;;0.57;0.57;;;3.10;99.90;;;;;;4989709;28;20043;-85
2023/01/03 06:08:58;;;;;;;0.63;0.63;;;3.20;99.90;;;;;;4986604;28;20049;-85
2023/01/03 06:11:24;;;;;;;0.73;0.73;;;3.60;99.90;;;;;;4979478;28;20042;-85
2023/01/03 06:13:49;;;;;;;0.68;0.68;;;3.10;99.90;;;;;;4958600;28;20177;-86
2023/01/03 06:19:06;;;;;;;0.77;0.77;;;3.10;99.90;;;;;;4990918;28;20547;-87
2023/01/03 06:21:32;;;;;;;0.40;0.40;;;3.00;99.90;;;;;;4987363;28;20042;-86
2023/01/03 06:23:58;;;;;;;0.80;0.80;;;3.00;99.90;;;;;;4970608;28;20447;-86
2023/01/03 06:26:24;;;;;;;0.60;0.60;;;3.00;99.90;;;;;;4993307;28;20042;-85
2023/01/03 06:28:50;;;;;;;;;;;3.00;99.90;;;;;;4976819;28;20042;-84
2023/01/03 06:31:17;;;;;;;0.70;0.70;;;2.90;99.90;;;;;;4987658;28;20408;-84
2023/01/03 06:33:44;;;;;;;0.60;0.60;;;2.70;99.90;;;;;;4988432;28;20038;-82
2023/01/03 06:36:12;;;;;;;1.05;1.05;;;2.60;99.90;;;;;;4986947;28;20086;-82
2023/01/03 06:38:38;;;;;;;0.70;0.70;;;2.50;99.90;;;;;;4974698;28;20365;-84
2023/01/03 06:41:04;;;;;;;0.70;0.70;;;2.40;99.90;;;;;;4991024;28;20487;-86
2023/01/03 06:43:30;;;;;;;0.60;0.60;;;2.40;99.90;;;;;;4992476;28;20632;-89
2023/01/03 06:54:30;;;;;;;0.70;0.70;;;2.40;99.90;;;;;;4985762;28;20395;-85
2023/01/03 06:56:56;;;;;;;0.68;0.68;;;2.40;99.90;;;;;;4986369;28;20038;-84
2023/01/03 06:59:23;;;;;;;0.70;0.70;;;2.40;99.90;;;;;;4969010;28;20062;-87
2023/01/03 07:01:50;;;;;;;0.70;0.70;;;2.50;99.90;;;;;;4992661;28;20030;-85
2023/01/03 07:04:16;;;;;;;0.60;0.60;;;3.60;99.90;;;;;;4991765;28;20117;-86
2023/01/03 07:06:43;;;;;;;0.80;0.80;;;2.30;99.90;;;;;;4990798;28;20050;-86
2023/01/03 07:09:09;;;;;;;0.80;0.80;;;2.20;99.90;;;;;;4990135;28;20488;-86
2023/01/03 07:11:37;;;;;;;0.75;0.75;;;2.00;99.90;;;;;;4991154;28;20088;-86
2023/01/03 07:14:04;;;;;;;1.23;1.17;;;2.60;99.90;;;;;;5007486;28;20045;-87
2023/01/03 07:16:34;;;;;;;0.80;0.80;;;1.90;99.90;;;;;;4970229;28;20519;-87
2023/01/03 07:19:00;;;;;;;0.73;0.73;;;2.10;99.90;;;;;;4987035;28;20074;-87
2023/01/03 07:21:27;;;;;;;;;;;1.90;99.90;;;;;;4990024;28;20040;-84
2023/01/03 07:23:57;;;;;;;;;;;1.80;99.90;;;;;;4986755;28;19933;-85
2023/01/03 07:26:23;;;;;;;1.48;1.38;;;1.80;99.90;;;;;;5001022;28;19917;-85
2023/01/03 07:28:50;;;;;;;0.85;0.85;;;1.70;99.90;;;;;;4983850;28;20748;-84
2023/01/03 07:31:17;;;;;;;0.77;0.77;;;1.70;99.90;;;;;;4981430;28;20100;-85
2023/01/03 07:33:44;;;;;;;0.60;0.60;;;1.80;99.90;;;;;;4953958;28;20207;-88
2023/01/03 07:36:15;;;;;;;0.77;0.77;;;2.00;99.90;;;;;;4982762;28;20057;-88
2023/01/03 07:38:43;;;;;;;0.70;0.70;;;1.70;99.90;;;;;;4985943;28;20041;-84
2023/01/03 07:41:10;;;;;;;0.70;0.70;;;1.70;99.90;;;;;;4984561;28;20174;-84
2023/01/03 07:43:37;;;;;;;1.13;1.13;;;1.70;99.90;;;;;;4985221;28;20039;-84
2023/01/03 07:46:12;;;;;;;1.02;1.02;;;1.70;99.90;;;;;;4983363;28;20042;-84
2023/01/03 07:48:38;;;;;;;1.27;1.27;;;1.70;99.90;;;;;;4969732;28;20034;-85
2023/01/03 07:51:06;;;;;;;0.70;0.70;;;1.80;99.90;;;;;;4966957;28;20077;-85
2023/01/03 07:53:33;;;;;;;0.70;0.70;;;2.30;99.90;;;;;;4966044;28;20046;-84
2023/01/03 07:56:13;;;;;;;0.75;0.75;;;1.50;99.90;;;;;;4986678;28;20057;-87
2023/01/03 07:58:41;;;;;;;0.80;0.80;;;1.70;99.90;;;;;;4979455;28;20046;-87
2023/01/03 08:01:09;;;;;;;0.77;0.77;;;1.60;99.90;;;;;;4984964;28;20357;-86
2023/01/03 08:03:35;;;;;;;0.80;0.80;;;2.60;99.90;;;;;;5003953;28;20057;-87
2023/01/03 08:06:04;;;;;;;1.35;1.35;;;1.70;99.90;;;;;;4995287;28;20048;-85
2023/01/03 08:08:30;;;;;;;0.80;0.80;;;1.80;99.90;;;;;;4997688;28;20100;-84
2023/01/03 08:13:42;;;;;;;0.68;0.68;;;1.90;99.90;;;;;;5005688;28;20050;-88
2023/01/03 08:16:10;;;;;;;1.30;1.20;;;1.90;99.90;;;;;;4988793;28;20038;-86
2023/01/03 08:18:37;;;;;;;0.70;0.70;;;1.90;99.90;;;;;;4989414;28;20053;-86
2023/01/03 08:21:03;;;;;;;0.70;0.70;;;1.90;99.90;;;;;;4992567;28;20057;-86
2023/01/03 08:23:29;;;;;;;0.80;0.80;;;1.90;99.90;;;;;;4972386;28;20054;-86
2023/01/03 08:26:02;;;;;;;0.80;0.80;;;1.90;99.90;;;;;;4990983;28;20058;-85
2023/01/03 08:28:28;;;;;;;0.80;0.80;;;1.90;99.90;;;;;;4989371;28;20150;-86
2023/01/03 08:30:55;;;;;;;0.73;0.73;;;1.90;99.90;;;;;;4987141;28;20443;-86
2023/01/03 08:33:20;;;;;;;1.75;1.70;;;1.90;99.90;;;;;;4972865;28;20034;-86
2023/01/03 08:35:59;;;;;;;0.80;0.80;;;2.80;99.90;;;;;;4991715;28;20407;-85
2023/01/03 08:38:30;;;;;;;0.68;0.68;;;2.00;99.90;;;;;;4992591;28;20053;-85
2023/01/03 08:40:58;;;;;;;0.70;0.70;;;2.00;99.90;;;;;;4994809;28;20038;-84
2023/01/03 08:43:24;;;;;;;1.00;1.00;;;2.00;99.90;;;;;;4974711;28;20049;-88
2023/01/03 08:45:49;;;;;;;0.80;0.80;;;2.40;99.90;;;;;;4976219;28;20527;-86
2023/01/03 08:48:18;;;;;;;0.90;0.90;;;2.00;99.90;;;;;;5011117;28;20042;-84
2023/01/03 08:50:47;;;;;;;0.80;0.80;;;2.00;99.90;;;;;;4991676;28;20042;-86
2023/01/03 08:53:13;;;;;;;1.45;1.38;;;2.00;99.90;;;;;;4982793;28;20052;-84
2023/01/03 08:55:38;;;;;;;1.00;1.00;;;2.00;99.90;;;;;;4990504;28;20484;-86
2023/01/03 08:58:04;;;;;;;0.60;0.60;;;2.00;99.90;;;;;;4986727;28;20039;-84
2023/01/03 09:00:33;;;;;;;0.60;0.60;;;2.00;99.90;;;;;;4987983;28;20627;-85
2023/01/03 09:02:59;;;;;;;0.95;0.93;;;2.00;99.90;;;;;;4988978;28;20042;-85
2023/01/03 09:05:28;;;;;;;0.60;0.60;;;2.10;99.90;;;;;;4986086;28;20050;-84
2023/01/03 09:07:57;;;;;;;0.85;0.85;;;2.10;99.90;;;;;;5003541;28;20101;-84
2023/01/03 09:10:23;;;;;;;0.65;0.65;;;2.50;99.90;;;;;;4989713;28;20078;-86
2023/01/03 09:12:49;;;;;;;;;;;2.30;99.90;;;;;;4972542;28;20054;-86
2023/01/03 09:15:15;;;;;;;0.60;0.60;;;2.30;99.90;;;;;;4973687;28;19937;-83
2023/01/03 09:17:43;;;;;;;;;;;2.40;99.90;;;;;;4988205;28;20057;-86
2023/01/03 09:20:11;;;;;;;3.40;1.20;;;3.30;99.90;;;;;;4977662;28;20013;-86
2023/01/03 09:22:37;;;;;;;0.68;0.68;;;2.40;99.90;;;;;;4994469;28;20067;-86
2023/01/03 09:25:03;;;;;;;0.70;0.70;;;2.30;99.90;;;;;;4999929;28;20038;-84
2023/01/03 09:27:29;;;;;;;0.77;0.77;;;2.40;99.90;;;;;;4997541;28;20046;-85
2023/01/03 09:29:55;;;;;;;0.70;0.70;;;2.20;99.90;;;;;;4983928;28;20057;-84
2023/01/03 09:32:21;;;;;;;0.80;0.80;;;2.40;99.90;;;;;;5010526;28;20317;-83
2023/01/03 09:34:47;;;;;;;0.60;0.60;;;2.40;99.90;;;;;;4981297;28;20054;-84
2023/01/03 09:37:12;;;;;;;0.70;0.70;;;2.40;99.90;;;;;;4990706;28;20086;-86
2023/01/03 09:39:41;;;;;;;0.70;0.70;;;2.30;99.90;;;;;;4995266;28;20038;-88
2023/01/03 09:45:02;;;;;;;1.45;0.98;;;2.30;99.90;;;;;;4992850;28;20129;-85
2023/01/03 09:47:33;;;;;;;0.60;0.60;;;3.40;99.90;;;;;;4993528;28;20174;-86
2023/01/03 09:49:59;;;;;;;2.70;1.83;;;2.20;99.90;;;;;;4991704;28;20038;-86
2023/01/03 10:04:12;;;;;;;0.70;0.70;;;1.80;99.90;;;;;;4980510;28;20046;-85
2023/01/03 10:06:49;;;;;;;0.80;0.80;;;1.80;99.90;;;;;;4968117;28;20476;-84
2023/01/03 10:09:33;;;;;;;0.80;0.80;;;1.80;99.90;;;;;;4999110;28;20054;-84
2023/01/03 10:12:32;;;;;;;0.80;0.80;;;1.90;99.90;;;;;;4984027;28;20053;-83
2023/01/03 10:15:18;;;;;;;0.70;0.70;;;1.90;99.90;;;;;;4982454;28;20046;-84
2023/01/03 10:17:56;;;;;;;0.80;0.80;;;1.90;99.90;;;;;;4980512;28;20467;-83
2023/01/03 10:20:29;;;;;;;1.08;1.05;;;1.90;99.90;;;;;;4994698;28;20361;-83
2023/01/03 10:22:56;;;;;;;0.70;0.70;;;2.00;99.90;;;;;;4978577;28;20407;-84
2023/01/03 10:25:22;;;;;;;0.70;0.70;;;2.00;99.90;;;;;;4982444;28;20050;-83
2023/01/03 10:27:53;;;;;;;0.73;0.73;;;2.10;99.90;;;;;;4965897;28;20078;-84
2023/01/03 10:30:37;;;;;;;0.82;0.82;;;2.10;99.90;;;;;;4981082;28;20042;-83
2023/01/03 10:33:22;;;;;;;0.70;0.70;;;2.10;99.90;;;;;;4980193;28;20050;-82
2023/01/03 10:35:48;;;;;;;0.80;0.80;;;2.20;99.90;;;;;;4981840;28;20046;-84
2023/01/03 10:38:14;;;;;;;;;;;2.20;99.90;;;;;;4980271;28;20035;-82
2023/01/03 10:40:49;;;;;;;0.60;0.60;;;2.30;99.90;;;;;;4980717;28;19967;-83
2023/01/03 10:43:35;;;;;;;0.70;0.70;;;2.40;99.90;;;;;;4981991;28;20085;-83
2023/01/03 10:46:12;;;;;;;1.13;1.08;;;2.50;99.90;;;;;;4983962;28;20496;-83
2023/01/03 10:48:44;;;;;;;0.65;0.65;;;2.50;99.90;;;;;;4983797;28;20046;-83
2023/01/03 10:51:38;;;;;;;0.80;0.80;;;2.50;99.90;;;;;;4981591;28;20038;-84
2023/01/03 10:54:18;;;;;;;0.55;0.55;;;2.50;99.90;;;;;;4979827;28;20181;-83
2023/01/03 10:56:46;;;;;;;0.70;0.70;;;2.60;99.90;;;;;;4979767;28;20080;-84
2023/01/03 10:59:14;;;;;;;0.73;0.73;;;2.60;99.90;;;;;;4979560;28;20081;-84
2023/01/03 11:01:59;;;;;;;0.47;0.47;;;2.70;99.90;;;;;;4980463;28;20528;-83
2023/01/03 11:04:26;;;;;;;0.60;0.60;;;2.70;99.90;;;;;;4981568;28;20044;-83
2023/01/03 11:07:00;;;;;;;0.80;0.80;;;2.80;99.90;;;;;;4983974;28;20121;-85
2023/01/03 11:09:44;;;;;;;0.73;0.73;;;3.30;99.90;;;;;;4983723;28;20050;-83
2023/01/03 11:12:29;;;;;;;4.13;1.75;;;3.00;99.90;;;;;;4985113;28;20267;-84
2023/01/03 11:14:56;;;;;;;0.80;0.80;;;3.60;99.90;;;;;;4971641;28;20045;-84
2023/01/03 11:17:24;;;;;;;0.60;0.60;;;3.30;99.90;;;;;;4990017;28;20415;-85
2023/01/03 11:19:51;;;;;;;0.70;0.70;;;3.40;99.90;;;;;;4988030;28;20479;-84
2023/01/03 11:22:29;;;;;;;0.80;0.80;;;3.50;99.90;;;;;;4982158;28;20185;-82
2023/01/03 11:25:33;;;;;;;1.00;0.90;;;3.70;99.90;;;;;;4997733;28;20050;-84
2023/01/03 11:28:27;;;;;;;0.70;0.70;;;3.80;99.90;;;;;;4978608;28;21059;-83
2023/01/03 11:31:10;;;;;;;0.63;0.63;;;4.00;99.90;;;;;;4977899;28;20050;-85
2023/01/03 11:34:05;;;;;;;0.70;0.70;;;4.10;99.90;;;;;;4996930;28;20436;-83
2023/01/03 11:36:57;;;;;;;0.50;0.50;;;4.30;99.90;;;;;;4971867;28;20081;-82
2023/01/03 11:39:32;;;;;;;0.70;0.70;;;4.50;99.90;;;;;;4971743;28;20141;-83
2023/01/03 11:42:04;;;;;;;0.80;0.80;;;4.60;99.90;;;;;;4978476;28;20049;-84
2023/01/03 11:44:41;;;;;;;0.50;0.50;;;4.70;99.90;;;;;;4979608;28;20038;-83
2023/01/03 11:47:17;;;;;;;0.52;0.52;;;4.80;99.90;;;;;;4979119;28;20048;-82
2023/01/03 11:50:02;;;;;;;1.33;1.08;;;4.90;99.90;;;;;;4983651;28;20647;-82
2023/01/03 11:52:36;;;;;;;1.25;1.25;;;5.00;99.90;;;;;;4983772;28;20121;-85
2023/01/03 11:55:23;;;;;;;0.50;0.50;;;5.00;99.90;;;;;;4970283;28;20052;-84
2023/01/03 11:58:01;;;;;;;0.70;0.70;;;5.00;99.90;;;;;;4982330;28;20096;-83
2023/01/03 12:00:39;;;;;;;0.82;0.82;;;5.00;99.90;;;;;;4986638;28;20053;-84
2023/01/03 12:03:20;;;;;;;0.90;0.90;;;5.10;99.90;;;;;;5002605;28;20098;-85
2023/01/03 12:05:47;;;;;;;0.80;0.80;;;5.10;99.90;;;;;;4986347;28;20109;-82
2023/01/03 12:08:36;;;;;;;0.70;0.70;;;5.10;99.90;;;;;;4979505;28;20570;-82
2023/01/03 12:11:24;;;;;;;0.70;0.70;;;5.10;99.90;;;;;;4994251;28;20113;-82
2023/01/03 12:14:30;;;;;;;0.90;0.90;;;5.10;99.90;;;;;;4981732;28;20050;-83
2023/01/03 12:17:06;;;;;;;0.60;0.60;;;5.10;99.90;;;;;;4977987;28;20050;-82
2023/01/03 12:19:42;;;;;;;0.82;0.82;;;5.10;99.90;;;;;;5000078;28;20038;-82
2023/01/03 12:22:16;;;;;;;3.10;2.58;;;5.10;99.90;;;;;;4963702;28;20081;-82
2023/01/03 12:24:50;;;;;;;0.70;0.70;;;5.10;99.90;;;;;;4965777;28;20133;-85
2023/01/03 12:27:33;;;;;;;1.42;1.33;;;5.20;99.90;;;;;;4981260;28;20512;-83
2023/01/03 12:30:16;;;;;;;1.25;1.25;;;5.20;99.90;;;;;;5009310;28;20056;-84
2023/01/03 12:32:46;;;;;;;1.73;1.63;;;5.20;99.90;;;;;;4980899;28;20054;-83
2023/01/03 12:35:55;;;;;;;1.05;1.05;;;5.20;99.90;;;;;;4981582;28;20446;-84
2023/01/03 12:38:28;;;;;;;1.17;1.17;;;5.30;99.90;;;;;;4985611;28;20046;-83
2023/01/03 12:41:24;;;;;;;0.88;0.88;;;5.40;99.90;;;;;;5003266;28;20046;-83
2023/01/03 12:44:20;;;;;;;0.70;0.70;;;5.40;99.90;;;;;;4970597;28;20054;-83
2023/01/03 12:46:54;;;;;;;1.95;1.58;;;5.40;99.90;;;;;;4986257;28;20042;-85
2023/01/03 12:49:58;;;;;;;1.73;1.63;;;5.60;99.90;;;;;;4987178;28;20822;-83
2023/01/03 12:52:25;;;;;;;1.65;1.63;;;5.40;99.90;;;;;;4986407;28;20050;-84
2023/01/03 12:55:23;;;;;;;1.25;1.23;;;5.50;99.90;;;;;;4988466;28;20168;-84
2023/01/03 12:58:08;;;;;;;;;;;5.50;99.90;;;;;;4989540;28;20432;-83
2023/01/03 13:00:41;;;;;;;0.60;0.60;;;5.60;99.90;;;;;;4991219;28;19949;-83
2023/01/03 13:03:22;;;;;;;1.58;1.48;;;5.60;99.90;;;;;;4977137;28;20046;-83
2023/01/03 13:06:06;;;;;;;0.65;0.65;;;5.60;99.90;;;;;;4994668;28;20050;-81
2023/01/03 13:08:39;;;;;;;1.10;1.05;;;5.70;99.90;;;;;;4990005;28;20495;-84
2023/01/03 13:11:16;;;;;;;0.95;0.95;;;5.70;99.90;;;;;;4995668;28;20081;-83
2023/01/03 13:13:55;;;;;;;1.55;1.45;;;5.70;99.90;;;;;;4983014;28;20418;-89
2023/01/03 13:16:33;;;;;;;0.60;0.60;;;5.80;99.90;;;;;;4987929;28;20443;-81
2023/01/03 13:19:20;;;;;;;1.27;1.27;;;5.80;99.90;;;;;;4989198;28;20444;-83
2023/01/03 13:21:52;;;;;;;0.80;0.80;;;5.90;99.90;;;;;;4988399;28;20038;-83
2023/01/03 13:24:42;;;;;;;5.78;1.63;;;5.90;99.90;;;;;;4993320;28;20054;-84
2023/01/03 13:27:21;;;;;;;1.38;1.02;;;5.90;99.90;;;;;;5012833;28;20051;-84
2023/01/03 13:29:55;;;;;;;0.90;0.90;;;5.90;99.90;;;;;;4974116;28;20050;-83
2023/01/03 13:32:21;;;;;;;2.75;1.55;;;5.90;99.90;;;;;;4993552;28;20042;-83
2023/01/03 13:34:53;;;;;;;2.15;1.55;;;6.00;99.90;;;;;;4976767;28;20085;-83
2023/01/03 13:37:21;;;;;;;0.82;0.82;;;6.00;99.90;;;;;;4992002;28;20053;-83
2023/01/03 13:39:49;;;;;;;0.57;0.57;;;6.10;99.90;;;;;;4993807;28;20046;-83
2023/01/03 13:42:27;;;;;;;0.98;0.98;;;6.10;99.90;;;;;;4991874;28;20057;-83
2023/01/03 13:45:18;;;;;;;3.85;0.95;;;6.10;99.90;;;;;;4970141;28;20130;-82
2023/01/03 13:47:48;;;;;;;4.00;3.70;;;6.20;99.90;;;;;;5006777;28;20034;-84
2023/01/03 13:50:35;;;;;;;2.78;2.53;;;6.20;99.90;;;;;;4994309;28;20050;-83
2023/01/03 13:53:08;;;;;;;1.55;1.45;;;6.20;99.90;;;;;;4987681;28;20383;-83
2023/01/03 13:55:38;;;;;;;1.85;0.75;;;6.20;99.90;;;;;;4988913;28;20049;-82
2023/01/03 13:58:36;;;;;;;1.77;1.70;;;6.20;99.90;;;;;;4989191;28;20120;-85
2023/01/03 14:01:15;;;;;;;1.45;1.45;;;6.20;99.90;;;;;;4998194;28;20101;-84
2023/01/03 14:04:12;;;;;;;0.65;0.65;;;6.20;99.90;;;;;;4992871;28;20082;-84
2023/01/03 14:06:50;;;;;;;0.60;0.60;;;6.20;99.90;;;;;;5003566;28;20487;-83
2023/01/03 14:09:34;;;;;;;0.65;0.65;;;6.20;99.90;;;;;;4989170;28;20058;-84
2023/01/03 14:12:26;;;;;;;0.68;0.68;;;6.20;99.90;;;;;;4988617;28;20049;-84
2023/01/03 14:14:57;;;;;;;0.90;0.90;;;6.30;99.90;;;;;;4992037;28;20848;-84
2023/01/03 14:17:32;;;;;;;0.60;0.60;;;6.20;99.90;;;;;;4991315;28;20042;-83
2023/01/03 14:20:08;;;;;;;2.25;2.08;;;6.30;99.90;;;;;;4994812;28;20510;-82
2023/01/03 14:22:45;;;;;;;0.98;0.98;;;6.30;99.90;;;;;;4996688;28;20078;-82
2023/01/03 14:25:40;;;;;;;0.70;0.70;;;6.30;99.90;;;;;;4980554;28;20038;-83
2023/01/03 14:28:21;;;;;;;0.65;0.65;;;6.30;99.90;;;;;;4972191;28;20435;-83
2023/01/03 14:30:53;;;;;;;0.85;0.85;;;6.30;99.90;;;;;;4988277;28;20125;-82